createdAt,value
2019-04-06T00:00:52.761Z,8.53
2019-04-06T00:01:52.743Z,8.45
2019-04-06T00:02:52.748Z,8.50
2019-04-06T00:03:52.736Z,8.56
2019-04-06T00:04:52.716Z,8.52
2019-04-06T00:05:52.716Z,8.53
2019-04-06T00:06:52.684Z,8.58
2019-04-06T00:07:52.680Z,8.55
2019-04-06T00:08:52.682Z,8.47
2019-04-06T00:09:52.693Z,8.55
2019-04-06T00:10:55.045Z,8.56
2019-04-06T00:11:52.639Z,8.50
2019-04-06T00:12:52.666Z,8.58
2019-04-06T00:13:52.635Z,8.58
2019-04-06T00:14:52.601Z,8.55
2019-04-06T00:15:52.593Z,8.61
2019-04-06T00:16:52.609Z,8.56
2019-04-06T00:17:52.636Z,8.50
2019-04-06T00:18:52.587Z,8.53
2019-04-06T00:19:52.558Z,8.55
2019-04-06T00:20:52.545Z,8.50
2019-04-06T00:21:52.524Z,8.58
2019-04-06T00:22:52.533Z,8.56
2019-04-06T00:23:52.529Z,8.55
2019-04-06T00:24:52.492Z,8.55
2019-04-06T00:25:52.479Z,8.58
2019-04-06T00:26:52.476Z,8.53
2019-04-06T00:27:52.467Z,8.58
2019-04-06T00:28:52.447Z,8.55
2019-04-06T00:29:52.450Z,8.58
2019-04-06T00:30:52.449Z,8.45
2019-04-06T00:31:52.410Z,8.47
2019-04-06T00:32:52.395Z,8.53
2019-04-06T00:33:52.408Z,8.55
2019-04-06T00:34:52.455Z,8.44
2019-04-06T00:35:52.374Z,8.47
2019-04-06T00:36:52.376Z,8.44
2019-04-06T00:37:52.354Z,8.47
2019-04-06T00:38:52.331Z,8.45
2019-04-06T00:39:52.349Z,8.41
2019-04-06T00:40:52.314Z,8.40
2019-04-06T00:41:52.295Z,8.43
2019-04-06T00:42:52.296Z,8.45
2019-04-06T00:43:52.284Z,8.48
2019-04-06T00:44:52.284Z,8.41
2019-04-06T00:45:52.255Z,8.47
2019-04-06T00:46:52.263Z,8.45
2019-04-06T00:47:52.249Z,8.38
2019-04-06T00:48:52.227Z,8.41
2019-04-06T00:49:52.239Z,8.45
2019-04-06T00:50:52.300Z,8.41
2019-04-06T00:51:52.187Z,8.34
2019-04-06T00:52:52.176Z,8.38
2019-04-06T00:53:52.208Z,8.33
2019-04-06T00:54:52.205Z,8.41
2019-04-06T00:55:55.816Z,8.41
2019-04-06T00:56:52.133Z,8.43
2019-04-06T00:57:52.156Z,8.44
2019-04-06T00:58:52.137Z,8.36
2019-04-06T00:59:52.128Z,8.40
2019-04-06T01:00:52.123Z,8.30
2019-04-06T01:01:52.088Z,8.30
2019-04-06T01:02:52.075Z,8.33
2019-04-06T01:03:52.082Z,8.30
2019-04-06T01:04:52.051Z,8.34
2019-04-06T01:05:52.054Z,8.36
2019-04-06T01:06:52.027Z,8.36
2019-04-06T01:07:52.038Z,8.36
2019-04-06T01:08:52.001Z,8.34
2019-04-06T01:09:51.999Z,8.37
2019-04-06T01:10:52.017Z,8.38
2019-04-06T01:11:51.989Z,8.34
2019-04-06T01:12:51.963Z,8.40
2019-04-06T01:13:51.959Z,8.37
2019-04-06T01:14:51.948Z,8.36
2019-04-06T01:15:51.959Z,8.34
2019-04-06T01:16:51.919Z,8.41
2019-04-06T01:17:51.919Z,8.37
2019-04-06T01:18:51.899Z,8.34
2019-04-06T01:19:51.905Z,8.40
2019-04-06T01:20:51.912Z,8.33
2019-04-06T01:21:51.937Z,8.30
2019-04-06T01:22:51.852Z,8.33
2019-04-06T01:23:51.845Z,8.41
2019-04-06T01:24:51.828Z,8.40
2019-04-06T01:25:51.812Z,8.28
2019-04-06T01:26:51.825Z,8.37
2019-04-06T01:27:51.793Z,8.44
2019-04-06T01:28:51.783Z,8.43
2019-04-06T01:29:51.786Z,8.34
2019-04-06T01:30:51.824Z,8.34
2019-04-06T01:31:51.781Z,8.34
2019-04-06T01:32:51.739Z,8.43
2019-04-06T01:33:51.729Z,8.36
2019-04-06T01:34:51.791Z,8.34
2019-04-06T01:35:51.703Z,8.36
2019-04-06T01:36:51.715Z,8.33
2019-04-06T01:37:51.681Z,8.37
2019-04-06T01:38:51.771Z,8.34
2019-04-06T01:39:51.686Z,8.41
2019-04-06T01:40:51.649Z,8.30
2019-04-06T01:41:51.662Z,8.37
2019-04-06T01:42:51.630Z,8.33
2019-04-06T01:43:51.617Z,8.36
2019-04-06T01:44:51.608Z,8.41
2019-04-06T01:45:51.621Z,8.33
2019-04-06T01:46:51.610Z,8.41
2019-04-06T01:47:51.579Z,8.38
2019-04-06T01:48:51.562Z,8.36
2019-04-06T01:49:51.572Z,8.40
2019-04-06T01:50:51.563Z,8.33
2019-04-06T01:51:51.558Z,8.29
2019-04-06T01:52:51.540Z,8.34
2019-04-06T01:53:51.513Z,8.34
2019-04-06T01:54:51.556Z,8.36
2019-04-06T01:55:51.503Z,8.40
2019-04-06T01:56:51.479Z,8.34
2019-04-06T01:57:51.523Z,8.33
2019-04-06T01:58:51.457Z,8.36
2019-04-06T01:59:51.448Z,8.36
2019-04-06T02:00:51.434Z,8.34
2019-04-06T02:01:51.518Z,8.36
2019-04-06T02:02:51.430Z,8.36
2019-04-06T02:03:51.395Z,8.30
2019-04-06T02:04:51.387Z,8.37
2019-04-06T02:05:51.370Z,8.26
2019-04-06T02:06:51.367Z,8.34
2019-04-06T02:07:51.369Z,8.33
2019-04-06T02:08:51.452Z,8.34
2019-04-06T02:09:51.341Z,8.30
2019-04-06T02:10:51.335Z,8.28
2019-04-06T02:11:51.317Z,8.20
2019-04-06T02:12:51.318Z,8.23
2019-04-06T02:13:51.289Z,8.22
2019-04-06T02:14:51.422Z,8.25
2019-04-06T02:15:51.347Z,8.30
2019-04-06T02:16:51.269Z,8.25
2019-04-06T02:17:51.274Z,8.22
2019-04-06T02:18:51.237Z,8.28
2019-04-06T02:19:51.227Z,8.26
2019-04-06T02:20:51.315Z,8.16
2019-04-06T02:21:51.222Z,8.20
2019-04-06T02:22:51.271Z,8.16
2019-04-06T02:23:51.187Z,8.12
2019-04-06T02:24:51.214Z,8.15
2019-04-06T02:25:51.174Z,8.15
2019-04-06T02:26:51.173Z,8.10
2019-04-06T02:27:51.138Z,8.15
2019-04-06T02:28:51.142Z,8.18
2019-04-06T02:29:51.118Z,8.07
2019-04-06T02:30:51.100Z,8.07
2019-04-06T02:31:51.119Z,8.19
2019-04-06T02:32:51.111Z,8.10
2019-04-06T02:33:51.088Z,8.10
2019-04-06T02:34:51.056Z,8.10
2019-04-06T02:35:51.040Z,8.10
2019-04-06T02:36:51.040Z,8.10
2019-04-06T02:37:51.021Z,8.10
2019-04-06T02:38:51.049Z,8.10
2019-04-06T02:39:51.005Z,8.11
2019-04-06T02:40:51.088Z,8.12
2019-04-06T02:41:50.983Z,8.19
2019-04-06T02:42:50.977Z,8.11
2019-04-06T02:43:50.983Z,8.05
2019-04-06T02:44:50.962Z,8.08
2019-04-06T02:45:50.961Z,8.04
2019-04-06T02:46:50.931Z,8.11
2019-04-06T02:47:50.911Z,8.00
2019-04-06T02:48:50.897Z,8.00
2019-04-06T02:49:51.161Z,7.98
2019-04-06T02:50:50.876Z,8.05
2019-04-06T02:51:50.882Z,8.01
2019-04-06T02:52:50.880Z,7.98
2019-04-06T02:53:51.031Z,8.12
2019-04-06T02:54:50.849Z,7.98
2019-04-06T02:55:50.831Z,8.11
2019-04-06T02:56:50.818Z,8.08
2019-04-06T02:57:50.817Z,8.00
2019-04-06T02:58:50.823Z,8.02
2019-04-06T02:59:50.789Z,8.00
2019-04-06T03:00:51.104Z,7.95
2019-04-06T03:01:50.853Z,8.01
2019-04-06T03:02:50.758Z,7.98
2019-04-06T03:03:50.749Z,7.98
2019-04-06T03:04:50.764Z,7.95
2019-04-06T03:05:50.723Z,7.93
2019-04-06T03:06:50.730Z,7.93
2019-04-06T03:07:50.698Z,7.97
2019-04-06T03:08:50.684Z,7.93
2019-04-06T03:09:50.707Z,7.98
2019-04-06T03:10:50.675Z,7.93
2019-04-06T03:11:50.667Z,7.89
2019-04-06T03:12:50.666Z,7.89
2019-04-06T03:13:50.627Z,7.87
2019-04-06T03:14:50.640Z,7.86
2019-04-06T03:15:50.603Z,7.95
2019-04-06T03:16:50.594Z,7.90
2019-04-06T03:17:50.586Z,7.86
2019-04-06T03:18:50.581Z,7.86
2019-04-06T03:19:50.598Z,7.85
2019-04-06T03:20:50.809Z,7.89
2019-04-06T03:21:50.554Z,7.87
2019-04-06T03:22:50.530Z,7.85
2019-04-06T03:23:52.204Z,7.90
2019-04-06T03:24:50.511Z,7.87
2019-04-06T03:25:50.518Z,7.90
2019-04-06T03:27:00.925Z,7.87
2019-04-06T03:27:51.471Z,7.87
2019-04-06T03:28:50.464Z,7.86
2019-04-06T03:29:57.964Z,7.89
2019-04-06T03:30:51.475Z,7.86
2019-04-06T03:31:50.431Z,7.87
2019-04-06T03:32:50.421Z,7.83
2019-04-06T03:33:50.405Z,7.87
2019-04-06T03:34:50.398Z,7.86
2019-04-06T03:35:51.407Z,7.86
2019-04-06T03:36:50.560Z,7.83
2019-04-06T03:37:50.376Z,7.86
2019-04-06T03:38:50.488Z,7.83
2019-04-06T03:39:50.349Z,7.86
2019-04-06T03:40:50.356Z,7.86
2019-04-06T03:41:50.318Z,7.83
2019-04-06T03:42:50.335Z,7.80
2019-04-06T03:43:50.311Z,7.80
2019-04-06T03:44:50.515Z,7.86
2019-04-06T03:45:50.507Z,7.80
2019-04-06T03:46:50.262Z,7.77
2019-04-06T03:47:50.254Z,7.79
2019-04-06T03:48:50.242Z,7.72
2019-04-06T03:49:50.237Z,7.71
2019-04-06T03:50:50.254Z,7.69
2019-04-06T03:51:50.210Z,7.75
2019-04-06T03:52:50.198Z,7.71
2019-04-06T03:53:50.184Z,7.74
2019-04-06T03:54:50.310Z,7.67
2019-04-06T03:55:50.200Z,7.69
2019-04-06T03:56:50.201Z,7.63
2019-04-06T03:57:50.161Z,7.52
2019-04-06T03:58:52.201Z,7.61
2019-04-06T03:59:50.128Z,7.55
2019-04-06T04:00:50.513Z,7.46
2019-04-06T04:01:50.117Z,7.55
2019-04-06T04:02:50.094Z,7.43
2019-04-06T04:03:50.143Z,7.43
2019-04-06T04:04:50.063Z,7.50
2019-04-06T04:05:50.062Z,7.43
2019-04-06T04:06:50.125Z,7.46
2019-04-06T04:07:50.040Z,7.45
2019-04-06T04:08:50.031Z,7.39
2019-04-06T04:09:50.026Z,7.35
2019-04-06T04:10:50.007Z,7.42
2019-04-06T04:11:50.012Z,7.40
2019-04-06T04:12:50.003Z,7.37
2019-04-06T04:13:49.989Z,7.30
2019-04-06T04:14:49.955Z,7.30
2019-04-06T04:15:49.967Z,7.23
2019-04-06T04:16:49.976Z,7.16
2019-04-06T04:17:49.942Z,7.24
2019-04-06T04:18:49.995Z,7.21
2019-04-06T04:19:49.899Z,7.13
2019-04-06T04:20:49.923Z,7.07
2019-04-06T04:21:49.902Z,7.09
2019-04-06T04:22:49.881Z,7.07
2019-04-06T04:23:49.871Z,7.02
2019-04-06T04:24:49.867Z,7.02
2019-04-06T04:25:50.013Z,7.15
2019-04-06T04:26:49.824Z,7.02
2019-04-06T04:27:49.830Z,6.95
2019-04-06T04:28:49.802Z,6.97
2019-04-06T04:29:49.795Z,7.05
2019-04-06T04:30:49.788Z,6.95
2019-04-06T04:31:49.784Z,6.95
2019-04-06T04:32:49.797Z,6.91
2019-04-06T04:33:49.770Z,6.85
2019-04-06T04:34:49.779Z,6.89
2019-04-06T04:35:49.734Z,6.87
2019-04-06T04:36:49.727Z,6.73
2019-04-06T04:37:49.730Z,6.79
2019-04-06T04:38:49.712Z,6.67
2019-04-06T04:39:49.715Z,6.66
2019-04-06T04:40:49.782Z,6.69
2019-04-06T04:41:49.667Z,6.70
2019-04-06T04:42:49.680Z,6.58
2019-04-06T04:43:49.639Z,6.64
2019-04-06T04:44:49.628Z,6.66
2019-04-06T04:45:49.622Z,6.62
2019-04-06T04:46:49.621Z,6.61
2019-04-06T04:47:50.342Z,6.56
2019-04-06T04:48:49.629Z,6.58
2019-04-06T04:49:49.635Z,6.55
2019-04-06T04:50:49.576Z,6.48
2019-04-06T04:51:49.663Z,6.56
2019-04-06T04:52:49.793Z,6.52
2019-04-06T04:53:49.554Z,6.55
2019-04-06T04:54:49.536Z,6.51
2019-04-06T04:55:49.519Z,6.44
2019-04-06T04:56:49.501Z,6.37
2019-04-06T04:57:49.487Z,6.41
2019-04-06T04:58:49.526Z,6.30
2019-04-06T04:59:49.615Z,6.36
2019-04-06T05:00:49.462Z,6.36
2019-04-06T05:01:49.443Z,6.37
2019-04-06T05:02:49.433Z,6.28
2019-04-06T05:03:49.440Z,6.19
2019-04-06T05:04:49.410Z,6.22
2019-04-06T05:05:49.397Z,6.25
2019-04-06T05:06:49.392Z,6.21
2019-04-06T05:07:49.459Z,6.18
2019-04-06T05:08:49.383Z,6.21
2019-04-06T05:09:49.405Z,6.09
2019-04-06T05:10:49.359Z,6.08
2019-04-06T05:11:49.504Z,6.04
2019-04-06T05:12:49.323Z,6.03
2019-04-06T05:13:49.334Z,6.08
2019-04-06T05:14:49.325Z,6.08
2019-04-06T05:15:49.288Z,6.14
2019-04-06T05:16:49.285Z,6.04
2019-04-06T05:17:49.288Z,6.06
2019-04-06T05:18:49.272Z,6.01
2019-04-06T05:19:49.262Z,6.01
2019-04-06T05:20:49.239Z,6.01
2019-04-06T05:21:49.246Z,6.00
2019-04-06T05:22:49.233Z,6.04
2019-04-06T05:23:49.212Z,6.01
2019-04-06T05:24:49.226Z,6.00
2019-04-06T05:25:49.213Z,5.99
2019-04-06T05:26:49.291Z,6.06
2019-04-06T05:27:52.690Z,6.04
2019-04-06T05:28:49.149Z,6.04
2019-04-06T05:29:49.162Z,6.03
2019-04-06T05:30:49.133Z,6.03
2019-04-06T05:31:49.123Z,6.03
2019-04-06T05:32:49.110Z,6.04
2019-04-06T05:33:49.250Z,6.01
2019-04-06T05:34:49.119Z,6.01
2019-04-06T05:35:49.095Z,6.00
2019-04-06T05:36:49.238Z,6.08
2019-04-06T05:37:49.068Z,6.04
2019-04-06T05:38:49.044Z,6.12
2019-04-06T05:39:49.043Z,6.09
2019-04-06T05:40:49.038Z,6.14
2019-04-06T05:41:50.487Z,6.19
2019-04-06T05:42:48.999Z,6.18
2019-04-06T05:43:49.003Z,6.11
2019-04-06T05:44:48.978Z,6.18
2019-04-06T05:45:49.077Z,6.18
2019-04-06T05:46:48.956Z,6.19
2019-04-06T05:47:48.938Z,6.14
2019-04-06T05:48:48.933Z,6.18
2019-04-06T05:49:48.922Z,6.17
2019-04-06T05:50:48.935Z,6.36
2019-04-06T05:51:48.901Z,6.30
2019-04-06T05:52:48.893Z,6.28
2019-04-06T05:53:48.881Z,6.36
2019-04-06T05:54:48.862Z,6.34
2019-04-06T05:55:49.030Z,6.43
2019-04-06T05:56:48.858Z,6.41
2019-04-06T05:57:48.838Z,6.38
2019-04-06T05:58:48.825Z,6.46
2019-04-06T05:59:48.813Z,6.48
2019-04-06T06:00:48.812Z,6.58
2019-04-06T06:01:49.363Z,6.52
2019-04-06T06:02:48.773Z,6.58
2019-04-06T06:03:48.824Z,6.64
2019-04-06T06:04:48.760Z,6.66
2019-04-06T06:05:48.742Z,6.67
2019-04-06T06:06:48.747Z,6.74
2019-04-06T06:07:48.722Z,6.67
2019-04-06T06:08:48.750Z,6.73
2019-04-06T06:09:48.701Z,6.80
2019-04-06T06:10:48.688Z,6.81
2019-04-06T06:11:48.698Z,6.89
2019-04-06T06:12:48.678Z,6.87
2019-04-06T06:13:48.660Z,6.84
2019-04-06T06:14:48.642Z,6.84
2019-04-06T06:15:48.637Z,6.97
2019-04-06T06:16:48.637Z,6.92
2019-04-06T06:17:48.788Z,6.97
2019-04-06T06:18:48.598Z,7.02
2019-04-06T06:19:48.600Z,7.02
2019-04-06T06:20:48.701Z,7.02
2019-04-06T06:21:48.582Z,7.06
2019-04-06T06:22:48.554Z,7.02
2019-04-06T06:23:48.590Z,7.02
2019-04-06T06:24:48.535Z,7.10
2019-04-06T06:25:48.532Z,7.09
2019-04-06T06:26:48.531Z,7.16
2019-04-06T06:27:48.504Z,7.13
2019-04-06T06:28:48.489Z,7.15
2019-04-06T06:29:48.494Z,7.23
2019-04-06T06:30:48.681Z,7.21
2019-04-06T06:31:48.480Z,7.30
2019-04-06T06:32:48.446Z,7.35
2019-04-06T06:33:48.449Z,7.35
2019-04-06T06:34:48.448Z,7.39
2019-04-06T06:35:48.422Z,7.35
2019-04-06T06:36:48.420Z,7.37
2019-04-06T06:37:48.415Z,7.35
2019-04-06T06:38:48.391Z,7.50
2019-04-06T06:39:48.376Z,7.49
2019-04-06T06:40:48.369Z,7.52
2019-04-06T06:41:48.370Z,7.50
2019-04-06T06:42:48.360Z,7.52
2019-04-06T06:43:48.329Z,7.53
2019-04-06T06:44:48.330Z,7.67
2019-04-06T06:45:48.307Z,7.67
2019-04-06T06:46:48.293Z,7.72
2019-04-06T06:47:48.311Z,7.71
2019-04-06T06:48:48.433Z,7.72
2019-04-06T06:49:48.270Z,7.74
2019-04-06T06:50:48.262Z,7.83
2019-04-06T06:51:48.247Z,7.85
2019-04-06T06:52:48.253Z,7.86
2019-04-06T06:53:48.225Z,7.92
2019-04-06T06:54:48.206Z,7.87
2019-04-06T06:55:48.199Z,7.87
2019-04-06T06:56:48.184Z,7.92
2019-04-06T06:57:48.196Z,7.93
2019-04-06T06:58:48.168Z,7.92
2019-04-06T06:59:48.155Z,7.95
2019-04-06T07:00:48.148Z,8.04
2019-04-06T07:01:48.130Z,7.97
2019-04-06T07:02:48.149Z,8.00
2019-04-06T07:03:48.107Z,8.00
2019-04-06T07:04:48.163Z,8.00
2019-04-06T07:05:48.089Z,8.15
2019-04-06T07:06:48.335Z,8.10
2019-04-06T07:07:48.092Z,8.15
2019-04-06T07:08:48.062Z,8.08
2019-04-06T07:09:48.053Z,8.23
2019-04-06T07:10:48.169Z,8.23
2019-04-06T07:11:48.173Z,8.28
2019-04-06T07:12:48.038Z,8.23
2019-04-06T07:13:48.008Z,8.37
2019-04-06T07:14:47.988Z,8.29
2019-04-06T07:15:47.990Z,8.34
2019-04-06T07:16:47.967Z,8.38
2019-04-06T07:17:47.966Z,8.37
2019-04-06T07:18:47.964Z,8.41
2019-04-06T07:19:47.942Z,8.34
2019-04-06T07:20:47.929Z,8.52
2019-04-06T07:21:47.915Z,8.56
2019-04-06T07:22:47.907Z,8.53
2019-04-06T07:23:47.909Z,8.55
2019-04-06T07:24:48.311Z,8.56
2019-04-06T07:25:56.641Z,8.61
2019-04-06T07:26:48.860Z,8.66
2019-04-06T07:27:47.950Z,8.63
2019-04-06T07:28:47.955Z,8.61
2019-04-06T07:29:47.846Z,8.68
2019-04-06T07:30:47.820Z,8.73
2019-04-06T07:31:47.805Z,8.74
2019-04-06T07:32:47.799Z,8.83
2019-04-06T07:33:47.782Z,8.86
2019-04-06T07:34:47.815Z,8.76
2019-04-06T07:35:47.766Z,8.83
2019-04-06T07:36:47.859Z,8.96
2019-04-06T07:37:47.740Z,8.96
2019-04-06T07:38:47.748Z,9.02
2019-04-06T07:39:47.734Z,9.10
2019-04-06T07:40:47.710Z,9.14
2019-04-06T07:41:47.704Z,9.28
2019-04-06T07:42:47.902Z,9.29
2019-04-06T07:43:47.701Z,9.39
2019-04-06T07:44:47.678Z,9.66
2019-04-06T07:45:47.661Z,9.71
2019-04-06T07:46:47.642Z,9.81
2019-04-06T07:47:47.643Z,9.94
2019-04-06T07:48:47.625Z,9.97
2019-04-06T07:49:47.636Z,10.17
2019-04-06T07:50:47.597Z,10.27
2019-04-06T07:51:47.584Z,10.40
2019-04-06T07:52:47.575Z,10.47
2019-04-06T07:53:47.577Z,10.47
2019-04-06T07:54:47.546Z,10.63
2019-04-06T07:55:47.545Z,10.68
2019-04-06T07:56:47.638Z,10.70
2019-04-06T07:57:47.570Z,10.64
2019-04-06T07:58:49.821Z,10.76
2019-04-06T07:59:47.507Z,10.85
2019-04-06T08:00:47.493Z,10.92
2019-04-06T08:01:48.714Z,11.14
2019-04-06T08:02:47.467Z,11.25
2019-04-06T08:03:47.450Z,11.32
2019-04-06T08:04:47.454Z,11.36
2019-04-06T08:05:47.447Z,11.51
2019-04-06T08:06:47.415Z,11.65
2019-04-06T08:07:47.413Z,11.69
2019-04-06T08:08:47.412Z,11.83
2019-04-06T08:09:47.397Z,11.94
2019-04-06T08:10:47.387Z,12.10
2019-04-06T08:11:47.367Z,12.14
2019-04-06T08:12:47.351Z,12.19
2019-04-06T08:13:47.344Z,12.29
2019-04-06T08:14:47.349Z,12.27
2019-04-06T08:15:47.477Z,12.21
2019-04-06T08:16:47.320Z,12.29
2019-04-06T08:17:47.297Z,12.34
2019-04-06T08:18:47.291Z,12.45
2019-04-06T08:19:47.362Z,12.46
2019-04-06T08:20:47.262Z,12.54
2019-04-06T08:21:47.252Z,12.60
2019-04-06T08:22:47.247Z,12.70
2019-04-06T08:23:47.230Z,12.70
2019-04-06T08:24:47.243Z,12.83
2019-04-06T08:25:47.437Z,12.83
2019-04-06T08:26:47.206Z,12.87
2019-04-06T08:27:47.182Z,12.90
2019-04-06T08:28:47.174Z,13.03
2019-04-06T08:29:47.169Z,13.10
2019-04-06T08:30:47.241Z,13.15
2019-04-06T08:31:47.142Z,13.25
2019-04-06T08:32:47.140Z,13.30
2019-04-06T08:33:47.229Z,13.28
2019-04-06T08:34:47.152Z,13.44
2019-04-06T08:35:47.145Z,13.49
2019-04-06T08:36:47.079Z,13.51
2019-04-06T08:37:47.281Z,13.55
2019-04-06T08:38:47.130Z,13.60
2019-04-06T08:39:47.105Z,13.60
2019-04-06T08:40:47.105Z,13.67
2019-04-06T08:41:47.076Z,13.73
2019-04-06T08:42:47.022Z,13.84
2019-04-06T08:43:47.000Z,13.85
2019-04-06T08:44:46.990Z,13.87
2019-04-06T08:45:47.090Z,13.84
2019-04-06T08:46:47.010Z,14.09
2019-04-06T08:47:46.956Z,14.09
2019-04-06T08:48:46.960Z,14.18
2019-04-06T08:49:46.982Z,14.21
2019-04-06T08:50:46.931Z,14.22
2019-04-06T08:51:46.936Z,14.21
2019-04-06T08:52:46.904Z,14.27
2019-04-06T08:53:46.892Z,14.33
2019-04-06T08:54:46.883Z,14.42
2019-04-06T08:55:46.892Z,14.35
2019-04-06T08:56:46.882Z,14.40
2019-04-06T08:57:46.861Z,14.45
2019-04-06T08:58:46.861Z,14.50
2019-04-06T08:59:46.947Z,14.60
2019-04-06T09:00:46.832Z,14.75
2019-04-06T09:01:46.822Z,14.73
2019-04-06T09:02:46.823Z,14.78
2019-04-06T09:03:46.813Z,14.84
2019-04-06T09:04:46.793Z,14.83
2019-04-06T09:05:46.860Z,14.91
2019-04-06T09:06:46.767Z,14.96
2019-04-06T09:07:46.940Z,15.13
2019-04-06T09:08:46.735Z,15.11
2019-04-06T09:09:46.740Z,15.31
2019-04-06T09:10:46.937Z,15.36
2019-04-06T09:11:46.729Z,15.39
2019-04-06T09:12:46.962Z,15.43
2019-04-06T09:13:46.673Z,15.47
2019-04-06T09:14:46.666Z,15.50
2019-04-06T09:15:46.654Z,15.54
2019-04-06T09:16:46.750Z,15.56
2019-04-06T09:17:46.681Z,15.65
2019-04-06T09:18:48.649Z,15.62
2019-04-06T09:19:46.610Z,15.64
2019-04-06T09:20:46.603Z,15.62
2019-04-06T09:21:46.601Z,15.74
2019-04-06T09:22:46.809Z,15.72
2019-04-06T09:23:46.568Z,15.71
2019-04-06T09:24:46.556Z,15.74
2019-04-06T09:25:46.552Z,15.75
2019-04-06T09:26:48.130Z,15.76
2019-04-06T09:27:46.554Z,15.84
2019-04-06T09:28:46.586Z,15.87
2019-04-06T09:29:46.498Z,15.96
2019-04-06T09:30:46.494Z,15.89
2019-04-06T09:31:46.484Z,16.04
2019-04-06T09:32:46.508Z,16.02
2019-04-06T09:33:46.623Z,15.96
2019-04-06T09:34:46.442Z,16.01
2019-04-06T09:35:46.438Z,16.09
2019-04-06T09:36:46.441Z,16.07
2019-04-06T09:37:46.537Z,16.11
2019-04-06T09:38:46.458Z,16.09
2019-04-06T09:39:46.391Z,16.05
2019-04-06T09:40:46.383Z,16.08
2019-04-06T09:41:46.364Z,16.11
2019-04-06T09:42:46.406Z,16.11
2019-04-06T09:43:46.361Z,16.14
2019-04-06T09:44:46.429Z,16.12
2019-04-06T09:45:46.329Z,15.97
2019-04-06T09:46:46.321Z,16.11
2019-04-06T09:47:46.316Z,16.02
2019-04-06T09:48:46.316Z,16.00
2019-04-06T09:49:46.281Z,16.01
2019-04-06T09:50:46.278Z,16.02
2019-04-06T09:51:46.278Z,15.96
2019-04-06T09:52:46.516Z,15.96
2019-04-06T09:53:46.237Z,16.02
2019-04-06T09:54:46.241Z,16.12
2019-04-06T09:55:46.237Z,16.07
2019-04-06T09:56:46.205Z,16.15
2019-04-06T09:57:46.189Z,16.15
2019-04-06T09:58:46.375Z,16.20
2019-04-06T09:59:48.209Z,16.20
2019-04-06T10:00:46.156Z,16.07
2019-04-06T10:01:46.141Z,16.08
2019-04-06T10:02:46.181Z,16.07
2019-04-06T10:03:46.154Z,16.04
2019-04-06T10:04:46.116Z,16.00
2019-04-06T10:05:46.118Z,15.97
2019-04-06T10:06:46.089Z,15.87
2019-04-06T10:07:46.080Z,15.80
2019-04-06T10:08:46.070Z,15.74
2019-04-06T10:09:46.100Z,15.78
2019-04-06T10:10:46.057Z,15.71
2019-04-06T10:11:46.045Z,15.62
2019-04-06T10:12:46.025Z,15.67
2019-04-06T10:13:46.227Z,15.72
2019-04-06T10:14:46.042Z,15.64
2019-04-06T10:15:45.987Z,15.74
2019-04-06T10:16:45.977Z,15.71
2019-04-06T10:17:46.130Z,15.59
2019-04-06T10:18:45.960Z,15.74
2019-04-06T10:19:45.977Z,15.59
2019-04-06T10:20:46.031Z,15.62
2019-04-06T10:21:45.925Z,15.60
2019-04-06T10:22:46.070Z,15.53
2019-04-06T10:23:46.157Z,15.60
2019-04-06T10:24:45.910Z,15.59
2019-04-06T10:25:46.156Z,15.53
2019-04-06T10:26:45.932Z,15.53
2019-04-06T10:27:45.856Z,15.56
2019-04-06T10:28:45.879Z,15.56
2019-04-06T10:29:48.947Z,15.54
2019-04-06T10:30:45.854Z,15.34
2019-04-06T10:31:45.818Z,15.46
2019-04-06T10:32:45.803Z,15.41
2019-04-06T10:33:45.857Z,15.38
2019-04-06T10:34:45.781Z,15.41
2019-04-06T10:35:45.796Z,15.35
2019-04-06T10:36:45.764Z,15.39
2019-04-06T10:37:45.745Z,15.31
2019-04-06T10:38:45.801Z,15.39
2019-04-06T10:39:45.744Z,15.29
2019-04-06T10:40:45.744Z,15.27
2019-04-06T10:41:45.718Z,15.27
2019-04-06T10:42:45.693Z,15.21
2019-04-06T10:43:45.686Z,15.16
2019-04-06T10:44:45.685Z,15.16
2019-04-06T10:45:45.773Z,14.99
2019-04-06T10:46:45.682Z,15.09
2019-04-06T10:47:45.659Z,15.07
2019-04-06T10:48:45.625Z,14.92
2019-04-06T10:49:45.619Z,14.84
2019-04-06T10:50:45.630Z,14.84
2019-04-06T10:51:45.599Z,14.83
2019-04-06T10:52:45.587Z,14.94
2019-04-06T10:53:45.568Z,14.98
2019-04-06T10:54:45.571Z,14.98
2019-04-06T10:55:45.572Z,15.01
2019-04-06T10:56:45.567Z,15.01
2019-04-06T10:57:45.547Z,15.11
2019-04-06T10:58:45.739Z,15.16
2019-04-06T10:59:45.503Z,15.21
2019-04-06T11:00:45.603Z,15.27
2019-04-06T11:01:45.522Z,15.32
2019-04-06T11:02:45.468Z,15.32
2019-04-06T11:03:45.467Z,15.43
2019-04-06T11:04:45.473Z,15.49
2019-04-06T11:05:45.653Z,15.49
2019-04-06T11:06:45.611Z,15.53
2019-04-06T11:07:45.430Z,15.49
2019-04-06T11:08:45.409Z,15.54
2019-04-06T11:09:45.394Z,15.50
2019-04-06T11:10:45.395Z,15.59
2019-04-06T11:11:45.638Z,15.57
2019-04-06T11:12:45.549Z,15.56
2019-04-06T11:13:45.355Z,15.65
2019-04-06T11:14:45.497Z,15.64
2019-04-06T11:15:45.334Z,15.71
2019-04-06T11:16:47.814Z,15.72
2019-04-06T11:17:45.341Z,15.67
2019-04-06T11:18:45.428Z,15.74
2019-04-06T11:19:45.309Z,15.76
2019-04-06T11:20:45.274Z,15.74
2019-04-06T11:21:45.740Z,15.86
2019-04-06T11:22:45.282Z,15.83
2019-04-06T11:23:45.251Z,15.87
2019-04-06T11:24:45.231Z,15.83
2019-04-06T11:25:45.213Z,15.97
2019-04-06T11:26:45.206Z,15.97
2019-04-06T11:27:45.208Z,16.09
2019-04-06T11:28:45.276Z,16.15
2019-04-06T11:29:45.507Z,16.28
2019-04-06T11:30:45.261Z,16.35
2019-04-06T11:31:45.150Z,16.56
2019-04-06T11:32:45.159Z,16.61
2019-04-06T11:33:45.167Z,16.73
2019-04-06T11:34:45.128Z,16.76
2019-04-06T11:35:45.113Z,16.81
2019-04-06T11:36:45.260Z,17.01
2019-04-06T11:37:45.130Z,16.98
2019-04-06T11:38:45.074Z,17.03
2019-04-06T11:39:45.063Z,17.14
2019-04-06T11:40:45.189Z,17.22
2019-04-06T11:41:45.059Z,17.38
2019-04-06T11:42:45.051Z,17.41
2019-04-06T11:43:45.023Z,17.44
2019-04-06T11:44:45.010Z,17.58
2019-04-06T11:45:45.006Z,17.58
2019-04-06T11:46:44.989Z,17.63
2019-04-06T11:47:44.996Z,17.64
2019-04-06T11:48:45.746Z,17.75
2019-04-06T11:49:44.955Z,17.71
2019-04-06T11:50:44.939Z,17.84
2019-04-06T11:51:44.936Z,17.87
2019-04-06T11:52:44.945Z,17.84
2019-04-06T11:53:44.908Z,17.79
2019-04-06T11:54:44.897Z,17.71
2019-04-06T11:55:45.414Z,17.66
2019-04-06T11:56:44.890Z,17.64
2019-04-06T11:57:44.946Z,17.54
2019-04-06T11:58:44.879Z,17.38
2019-04-06T11:59:44.845Z,17.36
2019-04-06T12:00:44.842Z,17.40
2019-04-06T12:01:44.823Z,17.34
2019-04-06T12:02:44.814Z,17.28
2019-04-06T12:03:44.823Z,17.12
2019-04-06T12:04:44.883Z,17.38
2019-04-06T12:05:44.780Z,17.33
2019-04-06T12:06:44.770Z,17.33
2019-04-06T12:07:44.771Z,17.43
2019-04-06T12:08:45.021Z,17.43
2019-04-06T12:09:44.731Z,17.51
2019-04-06T12:10:44.727Z,17.48
2019-04-06T12:11:45.099Z,17.56
2019-04-06T12:12:44.788Z,17.68
2019-04-06T12:13:44.719Z,17.62
2019-04-06T12:14:44.682Z,17.77
2019-04-06T12:15:44.662Z,17.79
2019-04-06T12:16:44.658Z,17.71
2019-04-06T12:17:44.658Z,17.64
2019-04-06T12:18:44.913Z,17.64
2019-04-06T12:19:44.659Z,17.66
2019-04-06T12:20:44.808Z,17.71
2019-04-06T12:21:44.863Z,17.66
2019-04-06T12:22:44.647Z,17.66
2019-04-06T12:23:44.809Z,17.54
2019-04-06T12:24:44.594Z,17.52
2019-04-06T12:25:44.570Z,17.48
2019-04-06T12:26:44.546Z,17.46
2019-04-06T12:27:44.531Z,17.40
2019-04-06T12:28:44.528Z,17.51
2019-04-06T12:29:44.534Z,17.37
2019-04-06T12:30:44.514Z,17.38
2019-04-06T12:31:44.728Z,17.36
2019-04-06T12:32:44.482Z,17.33
2019-04-06T12:33:44.462Z,17.33
2019-04-06T12:34:44.482Z,17.33
2019-04-06T12:35:44.454Z,17.38
2019-04-06T12:36:44.588Z,17.30
2019-04-06T12:37:44.422Z,17.19
2019-04-06T12:38:44.424Z,17.15
2019-04-06T12:39:52.631Z,17.07
2019-04-06T12:40:45.399Z,17.16
2019-04-06T12:41:44.376Z,17.04
2019-04-06T12:42:44.373Z,17.00
2019-04-06T12:43:44.396Z,16.97
2019-04-06T12:44:44.341Z,16.97
2019-04-06T12:45:44.344Z,16.96
2019-04-06T12:46:44.323Z,16.98
2019-04-06T12:47:44.352Z,16.89
2019-04-06T12:48:44.609Z,16.86
2019-04-06T12:49:44.336Z,16.79
2019-04-06T12:50:44.295Z,16.82
2019-04-06T12:51:44.288Z,16.88
2019-04-06T12:52:44.693Z,16.81
2019-04-06T12:53:44.245Z,16.88
2019-04-06T12:54:44.309Z,16.76
2019-04-06T12:55:44.256Z,16.76
2019-04-06T12:56:44.209Z,16.76
2019-04-06T12:57:44.217Z,16.75
2019-04-06T12:58:44.199Z,16.86
2019-04-06T12:59:44.203Z,16.88
2019-04-06T13:00:52.528Z,16.89
2019-04-06T13:01:45.181Z,16.89
2019-04-06T13:02:44.172Z,16.88
2019-04-06T13:03:44.138Z,16.82
2019-04-06T13:04:44.253Z,16.86
2019-04-06T13:05:44.472Z,16.82
2019-04-06T13:06:44.235Z,16.86
2019-04-06T13:07:44.667Z,16.83